sensor_id;sensor_type;location;lat;lon;timestamp;P1;durP1;ratioP1;P2;durP2;ratioP2
35488;SDS011;21602;55.670;37.578;2022-07-24T00:00:40;6.60;;;4.40;;
35488;SDS011;21602;55.670;37.578;2022-07-24T00:03:07;5.07;;;3.83;;
35488;SDS011;21602;55.670;37.578;2022-07-24T00:05:32;7.85;;;5.22;;
35488;SDS011;21602;55.670;37.578;2022-07-24T00:07:58;6.78;;;4.88;;
35488;SDS011;21602;55.670;37.578;2022-07-24T00:10:25;7.55;;;4.82;;
35488;SDS011;21602;55.670;37.578;2022-07-24T00:12:51;6.47;;;4.25;;
35488;SDS011;21602;55.670;37.578;2022-07-24T00:15:17;12.40;;;4.97;;
35488;SDS011;21602;55.670;37.578;2022-07-24T00:17:43;7.18;;;5.22;;
35488;SDS011;21602;55.670;37.578;2022-07-24T00:20:09;5.40;;;3.90;;
35488;SDS011;21602;55.670;37.578;2022-07-24T00:22:36;7.82;;;4.88;;
35488;SDS011;21602;55.670;37.578;2022-07-24T00:25:02;7.03;;;4.32;;
35488;SDS011;21602;55.670;37.578;2022-07-24T00:27:29;4.50;;;4.10;;
35488;SDS011;21602;55.670;37.578;2022-07-24T00:29:55;7.45;;;4.93;;
35488;SDS011;21602;55.670;37.578;2022-07-24T00:32:21;5.85;;;5.07;;
35488;SDS011;21602;55.670;37.578;2022-07-24T00:34:47;6.35;;;4.82;;
35488;SDS011;21602;55.670;37.578;2022-07-24T00:37:12;8.98;;;6.18;;
35488;SDS011;21602;55.670;37.578;2022-07-24T00:39:38;8.40;;;5.45;;
35488;SDS011;21602;55.670;37.578;2022-07-24T00:42:04;8.68;;;6.20;;
35488;SDS011;21602;55.670;37.578;2022-07-24T00:44:30;8.18;;;5.88;;
35488;SDS011;21602;55.670;37.578;2022-07-24T00:46:55;6.75;;;5.53;;
35488;SDS011;21602;55.670;37.578;2022-07-24T00:49:21;6.88;;;5.78;;
35488;SDS011;21602;55.670;37.578;2022-07-24T00:51:49;8.88;;;6.30;;
35488;SDS011;21602;55.670;37.578;2022-07-24T00:54:16;6.18;;;4.95;;
35488;SDS011;21602;55.670;37.578;2022-07-24T00:56:45;9.52;;;5.45;;
35488;SDS011;21602;55.670;37.578;2022-07-24T00:59:12;6.18;;;5.03;;
35488;SDS011;21602;55.670;37.578;2022-07-24T01:01:38;5.78;;;5.10;;
35488;SDS011;21602;55.670;37.578;2022-07-24T01:04:04;7.57;;;6.03;;
35488;SDS011;21602;55.670;37.578;2022-07-24T01:06:30;8.65;;;4.75;;
35488;SDS011;21602;55.670;37.578;2022-07-24T01:08:55;6.43;;;4.90;;
35488;SDS011;21602;55.670;37.578;2022-07-24T01:11:21;7.28;;;4.70;;
35488;SDS011;21602;55.670;37.578;2022-07-24T01:13:48;7.28;;;5.10;;
35488;SDS011;21602;55.670;37.578;2022-07-24T01:16:15;6.78;;;5.10;;
35488;SDS011;21602;55.670;37.578;2022-07-24T01:18:42;9.40;;;5.47;;
35488;SDS011;21602;55.670;37.578;2022-07-24T01:21:08;8.48;;;5.75;;
35488;SDS011;21602;55.670;37.578;2022-07-24T01:23:34;6.40;;;4.75;;
35488;SDS011;21602;55.670;37.578;2022-07-24T01:26:00;10.82;;;5.53;;
35488;SDS011;21602;55.670;37.578;2022-07-24T01:28:27;8.30;;;4.53;;
35488;SDS011;21602;55.670;37.578;2022-07-24T01:30:53;5.55;;;4.97;;
35488;SDS011;21602;55.670;37.578;2022-07-24T01:33:19;8.63;;;4.85;;
35488;SDS011;21602;55.670;37.578;2022-07-24T01:35:45;6.53;;;4.50;;
35488;SDS011;21602;55.670;37.578;2022-07-24T01:38:11;5.50;;;4.50;;
35488;SDS011;21602;55.670;37.578;2022-07-24T01:40:39;8.85;;;4.93;;
35488;SDS011;21602;55.670;37.578;2022-07-24T01:43:05;5.22;;;4.72;;
35488;SDS011;21602;55.670;37.578;2022-07-24T01:45:31;9.13;;;5.63;;
35488;SDS011;21602;55.670;37.578;2022-07-24T01:47:57;9.52;;;4.78;;
35488;SDS011;21602;55.670;37.578;2022-07-24T01:50:23;7.30;;;5.00;;
35488;SDS011;21602;55.670;37.578;2022-07-24T01:52:49;8.85;;;5.65;;
35488;SDS011;21602;55.670;37.578;2022-07-24T01:55:15;8.40;;;5.10;;
35488;SDS011;21602;55.670;37.578;2022-07-24T01:57:41;6.80;;;4.97;;
35488;SDS011;21602;55.670;37.578;2022-07-24T02:00:07;9.82;;;5.25;;
35488;SDS011;21602;55.670;37.578;2022-07-24T02:02:41;7.43;;;5.28;;
35488;SDS011;21602;55.670;37.578;2022-07-24T02:05:08;7.40;;;4.13;;
35488;SDS011;21602;55.670;37.578;2022-07-24T02:07:38;5.15;;;3.55;;
35488;SDS011;21602;55.670;37.578;2022-07-24T02:10:05;18.48;;;4.68;;
35488;SDS011;21602;55.670;37.578;2022-07-24T02:12:31;4.63;;;3.70;;
35488;SDS011;21602;55.670;37.578;2022-07-24T02:15:17;9.55;;;3.72;;
35488;SDS011;21602;55.670;37.578;2022-07-24T02:17:49;5.22;;;4.20;;
35488;SDS011;21602;55.670;37.578;2022-07-24T02:20:17;8.98;;;4.15;;
35488;SDS011;21602;55.670;37.578;2022-07-24T02:22:43;6.30;;;3.90;;
35488;SDS011;21602;55.670;37.578;2022-07-24T02:25:10;5.07;;;3.97;;
35488;SDS011;21602;55.670;37.578;2022-07-24T02:27:37;3.95;;;3.55;;
35488;SDS011;21602;55.670;37.578;2022-07-24T02:30:03;5.30;;;3.97;;
35488;SDS011;21602;55.670;37.578;2022-07-24T02:32:31;6.13;;;4.03;;
35488;SDS011;21602;55.670;37.578;2022-07-24T02:34:56;7.75;;;3.88;;
35488;SDS011;21602;55.670;37.578;2022-07-24T02:37:22;5.55;;;3.60;;
35488;SDS011;21602;55.670;37.578;2022-07-24T02:39:48;7.35;;;3.85;;
35488;SDS011;21602;55.670;37.578;2022-07-24T02:42:14;4.18;;;3.50;;
35488;SDS011;21602;55.670;37.578;2022-07-24T02:44:39;8.65;;;3.47;;
35488;SDS011;21602;55.670;37.578;2022-07-24T02:47:05;10.27;;;3.92;;
35488;SDS011;21602;55.670;37.578;2022-07-24T02:49:31;6.32;;;3.97;;
35488;SDS011;21602;55.670;37.578;2022-07-24T02:51:57;6.70;;;4.30;;
35488;SDS011;21602;55.670;37.578;2022-07-24T02:54:22;5.88;;;3.33;;
35488;SDS011;21602;55.670;37.578;2022-07-24T02:56:48;4.38;;;2.92;;
35488;SDS011;21602;55.670;37.578;2022-07-24T02:59:14;5.68;;;3.20;;
35488;SDS011;21602;55.670;37.578;2022-07-24T03:01:40;6.28;;;3.13;;
35488;SDS011;21602;55.670;37.578;2022-07-24T03:04:06;3.65;;;2.97;;
35488;SDS011;21602;55.670;37.578;2022-07-24T03:06:31;6.30;;;3.50;;
35488;SDS011;21602;55.670;37.578;2022-07-24T03:08:57;4.80;;;2.90;;
35488;SDS011;21602;55.670;37.578;2022-07-24T03:11:23;4.75;;;3.35;;
35488;SDS011;21602;55.670;37.578;2022-07-24T03:13:49;5.80;;;3.08;;
35488;SDS011;21602;55.670;37.578;2022-07-24T03:16:15;4.78;;;3.53;;
35488;SDS011;21602;55.670;37.578;2022-07-24T03:18:42;4.80;;;3.05;;
35488;SDS011;21602;55.670;37.578;2022-07-24T03:21:19;6.07;;;3.40;;
35488;SDS011;21602;55.670;37.578;2022-07-24T03:23:45;7.40;;;3.50;;
35488;SDS011;21602;55.670;37.578;2022-07-24T03:26:11;4.18;;;3.00;;
35488;SDS011;21602;55.670;37.578;2022-07-24T03:28:37;3.40;;;2.90;;
35488;SDS011;21602;55.670;37.578;2022-07-24T03:31:02;7.18;;;3.13;;
35488;SDS011;21602;55.670;37.578;2022-07-24T03:33:28;5.95;;;2.70;;
35488;SDS011;21602;55.670;37.578;2022-07-24T03:35:54;6.82;;;3.30;;
35488;SDS011;21602;55.670;37.578;2022-07-24T03:38:20;3.05;;;2.50;;
35488;SDS011;21602;55.670;37.578;2022-07-24T03:40:46;4.63;;;2.90;;
35488;SDS011;21602;55.670;37.578;2022-07-24T03:43:12;4.38;;;3.03;;
35488;SDS011;21602;55.670;37.578;2022-07-24T03:45:38;4.55;;;2.90;;
35488;SDS011;21602;55.670;37.578;2022-07-24T03:48:04;6.05;;;3.00;;
35488;SDS011;21602;55.670;37.578;2022-07-24T03:50:30;4.10;;;2.50;;
35488;SDS011;21602;55.670;37.578;2022-07-24T03:52:56;5.32;;;2.83;;
35488;SDS011;21602;55.670;37.578;2022-07-24T03:55:22;4.50;;;3.35;;
35488;SDS011;21602;55.670;37.578;2022-07-24T03:57:48;6.13;;;3.53;;
35488;SDS011;21602;55.670;37.578;2022-07-24T04:00:14;3.90;;;2.70;;
35488;SDS011;21602;55.670;37.578;2022-07-24T04:02:40;6.60;;;2.60;;
35488;SDS011;21602;55.670;37.578;2022-07-24T04:05:06;9.07;;;3.72;;
35488;SDS011;21602;55.670;37.578;2022-07-24T04:07:37;6.40;;;3.25;;
35488;SDS011;21602;55.670;37.578;2022-07-24T04:10:03;3.53;;;2.70;;
35488;SDS011;21602;55.670;37.578;2022-07-24T04:12:31;4.25;;;2.90;;
35488;SDS011;21602;55.670;37.578;2022-07-24T04:14:57;4.63;;;2.97;;
35488;SDS011;21602;55.670;37.578;2022-07-24T04:17:23;4.57;;;3.13;;
35488;SDS011;21602;55.670;37.578;2022-07-24T04:19:48;4.25;;;3.80;;
35488;SDS011;21602;55.670;37.578;2022-07-24T04:22:14;4.43;;;2.75;;
35488;SDS011;21602;55.670;37.578;2022-07-24T04:24:40;3.17;;;2.55;;
35488;SDS011;21602;55.670;37.578;2022-07-24T04:27:05;8.27;;;2.92;;
35488;SDS011;21602;55.670;37.578;2022-07-24T04:29:31;4.72;;;3.00;;
35488;SDS011;21602;55.670;37.578;2022-07-24T04:31:57;6.10;;;2.88;;
35488;SDS011;21602;55.670;37.578;2022-07-24T04:34:23;4.13;;;2.33;;
35488;SDS011;21602;55.670;37.578;2022-07-24T04:36:49;3.33;;;2.35;;
35488;SDS011;21602;55.670;37.578;2022-07-24T04:39:15;5.15;;;2.70;;
35488;SDS011;21602;55.670;37.578;2022-07-24T04:41:41;3.83;;;2.70;;
35488;SDS011;21602;55.670;37.578;2022-07-24T04:44:07;4.00;;;2.72;;
35488;SDS011;21602;55.670;37.578;2022-07-24T04:46:32;2.33;;;2.13;;
35488;SDS011;21602;55.670;37.578;2022-07-24T04:48:58;4.00;;;2.15;;
35488;SDS011;21602;55.670;37.578;2022-07-24T04:51:24;6.03;;;2.38;;
35488;SDS011;21602;55.670;37.578;2022-07-24T04:53:49;3.70;;;2.63;;
35488;SDS011;21602;55.670;37.578;2022-07-24T04:56:21;4.22;;;2.40;;
35488;SDS011;21602;55.670;37.578;2022-07-24T04:58:47;5.72;;;2.40;;
35488;SDS011;21602;55.670;37.578;2022-07-24T05:01:13;3.42;;;2.35;;
35488;SDS011;21602;55.670;37.578;2022-07-24T05:03:40;1.98;;;1.80;;
35488;SDS011;21602;55.670;37.578;2022-07-24T05:06:05;3.90;;;1.80;;
35488;SDS011;21602;55.670;37.578;2022-07-24T05:08:31;6.55;;;2.50;;
35488;SDS011;21602;55.670;37.578;2022-07-24T05:10:57;4.18;;;2.40;;
35488;SDS011;21602;55.670;37.578;2022-07-24T05:13:23;2.55;;;2.35;;
35488;SDS011;21602;55.670;37.578;2022-07-24T05:15:49;2.78;;;2.40;;
35488;SDS011;21602;55.670;37.578;2022-07-24T05:18:15;3.63;;;2.70;;
35488;SDS011;21602;55.670;37.578;2022-07-24T05:20:40;4.00;;;2.60;;
35488;SDS011;21602;55.670;37.578;2022-07-24T05:23:06;4.65;;;2.50;;
35488;SDS011;21602;55.670;37.578;2022-07-24T05:25:32;5.55;;;2.70;;
35488;SDS011;21602;55.670;37.578;2022-07-24T05:27:59;15.73;;;2.33;;
35488;SDS011;21602;55.670;37.578;2022-07-24T05:30:25;5.63;;;2.63;;
35488;SDS011;21602;55.670;37.578;2022-07-24T05:32:51;3.45;;;2.25;;
35488;SDS011;21602;55.670;37.578;2022-07-24T05:35:17;4.50;;;1.98;;
35488;SDS011;21602;55.670;37.578;2022-07-24T05:37:43;3.50;;;1.98;;
35488;SDS011;21602;55.670;37.578;2022-07-24T05:40:09;6.80;;;2.50;;
35488;SDS011;21602;55.670;37.578;2022-07-24T05:42:35;2.58;;;2.20;;
35488;SDS011;21602;55.670;37.578;2022-07-24T05:45:01;3.47;;;1.98;;
35488;SDS011;21602;55.670;37.578;2022-07-24T05:47:34;2.42;;;2.10;;
35488;SDS011;21602;55.670;37.578;2022-07-24T05:50:07;5.70;;;1.60;;
35488;SDS011;21602;55.670;37.578;2022-07-24T05:52:35;6.43;;;2.20;;
35488;SDS011;21602;55.670;37.578;2022-07-24T05:55:01;3.70;;;2.20;;
35488;SDS011;21602;55.670;37.578;2022-07-24T05:59:54;1.98;;;1.77;;
35488;SDS011;21602;55.670;37.578;2022-07-24T06:02:20;4.68;;;2.20;;
35488;SDS011;21602;55.670;37.578;2022-07-24T06:04:46;6.65;;;2.42;;
35488;SDS011;21602;55.670;37.578;2022-07-24T06:07:12;3.80;;;2.05;;
35488;SDS011;21602;55.670;37.578;2022-07-24T06:12:32;1.65;;;1.50;;
35488;SDS011;21602;55.670;37.578;2022-07-24T06:15:01;1.83;;;1.65;;
35488;SDS011;21602;55.670;37.578;2022-07-24T06:17:29;2.85;;;1.55;;
35488;SDS011;21602;55.670;37.578;2022-07-24T06:19:54;2.40;;;2.22;;
35488;SDS011;21602;55.670;37.578;2022-07-24T06:22:23;2.47;;;2.13;;
35488;SDS011;21602;55.670;37.578;2022-07-24T06:24:58;1.83;;;1.63;;
35488;SDS011;21602;55.670;37.578;2022-07-24T06:27:24;8.75;;;2.38;;
35488;SDS011;21602;55.670;37.578;2022-07-24T06:29:50;16.48;;;2.40;;
35488;SDS011;21602;55.670;37.578;2022-07-24T06:32:16;3.05;;;1.90;;
35488;SDS011;21602;55.670;37.578;2022-07-24T06:34:42;2.00;;;1.90;;
35488;SDS011;21602;55.670;37.578;2022-07-24T06:37:07;3.17;;;2.15;;
35488;SDS011;21602;55.670;37.578;2022-07-24T06:39:33;3.30;;;2.13;;
35488;SDS011;21602;55.670;37.578;2022-07-24T06:41:59;3.03;;;2.53;;
35488;SDS011;21602;55.670;37.578;2022-07-24T06:44:25;3.13;;;1.95;;
35488;SDS011;21602;55.670;37.578;2022-07-24T06:46:51;2.10;;;1.88;;
35488;SDS011;21602;55.670;37.578;2022-07-24T06:49:17;3.08;;;2.78;;
35488;SDS011;21602;55.670;37.578;2022-07-24T06:51:43;3.65;;;2.22;;
35488;SDS011;21602;55.670;37.578;2022-07-24T06:54:09;2.80;;;2.15;;
35488;SDS011;21602;55.670;37.578;2022-07-24T06:56:36;2.47;;;2.28;;
35488;SDS011;21602;55.670;37.578;2022-07-24T06:59:02;1.70;;;1.60;;
35488;SDS011;21602;55.670;37.578;2022-07-24T07:01:27;1.90;;;1.80;;
35488;SDS011;21602;55.670;37.578;2022-07-24T07:03:53;2.75;;;2.10;;
35488;SDS011;21602;55.670;37.578;2022-07-24T07:06:19;2.63;;;1.77;;
35488;SDS011;21602;55.670;37.578;2022-07-24T07:08:46;2.55;;;1.92;;
35488;SDS011;21602;55.670;37.578;2022-07-24T07:11:11;3.15;;;2.00;;
35488;SDS011;21602;55.670;37.578;2022-07-24T07:13:37;1.77;;;1.67;;
35488;SDS011;21602;55.670;37.578;2022-07-24T07:16:04;2.05;;;1.70;;
35488;SDS011;21602;55.670;37.578;2022-07-24T07:18:30;3.92;;;1.80;;
35488;SDS011;21602;55.670;37.578;2022-07-24T07:20:56;1.55;;;1.45;;
35488;SDS011;21602;55.670;37.578;2022-07-24T07:23:22;3.28;;;1.88;;
35488;SDS011;21602;55.670;37.578;2022-07-24T07:25:51;1.60;;;1.50;;
35488;SDS011;21602;55.670;37.578;2022-07-24T07:28:19;2.10;;;1.75;;
35488;SDS011;21602;55.670;37.578;2022-07-24T07:30:44;3.50;;;2.10;;
35488;SDS011;21602;55.670;37.578;2022-07-24T07:33:10;2.47;;;2.10;;
35488;SDS011;21602;55.670;37.578;2022-07-24T07:35:36;5.03;;;1.85;;
35488;SDS011;21602;55.670;37.578;2022-07-24T07:38:02;2.90;;;1.92;;
35488;SDS011;21602;55.670;37.578;2022-07-24T07:40:28;3.33;;;1.92;;
35488;SDS011;21602;55.670;37.578;2022-07-24T07:42:53;2.55;;;1.90;;
35488;SDS011;21602;55.670;37.578;2022-07-24T07:45:19;1.85;;;1.75;;
35488;SDS011;21602;55.670;37.578;2022-07-24T07:47:45;1.92;;;1.58;;
35488;SDS011;21602;55.670;37.578;2022-07-24T07:50:11;1.83;;;1.70;;
35488;SDS011;21602;55.670;37.578;2022-07-24T07:52:37;2.25;;;2.15;;
35488;SDS011;21602;55.670;37.578;2022-07-24T07:55:03;4.63;;;2.75;;
35488;SDS011;21602;55.670;37.578;2022-07-24T07:57:30;5.25;;;2.33;;
35488;SDS011;21602;55.670;37.578;2022-07-24T07:59:56;4.18;;;2.20;;
35488;SDS011;21602;55.670;37.578;2022-07-24T08:02:22;1.83;;;1.73;;
35488;SDS011;21602;55.670;37.578;2022-07-24T08:04:47;2.47;;;1.95;;
35488;SDS011;21602;55.670;37.578;2022-07-24T08:07:13;2.97;;;2.00;;
35488;SDS011;21602;55.670;37.578;2022-07-24T08:09:39;4.93;;;2.13;;
35488;SDS011;21602;55.670;37.578;2022-07-24T08:12:05;5.57;;;2.60;;
35488;SDS011;21602;55.670;37.578;2022-07-24T08:14:31;3.03;;;2.20;;
35488;SDS011;21602;55.670;37.578;2022-07-24T08:16:57;1.77;;;1.67;;
35488;SDS011;21602;55.670;37.578;2022-07-24T08:19:23;3.10;;;2.13;;
35488;SDS011;21602;55.670;37.578;2022-07-24T08:21:49;3.58;;;2.00;;
35488;SDS011;21602;55.670;37.578;2022-07-24T08:24:15;8.68;;;2.42;;
35488;SDS011;21602;55.670;37.578;2022-07-24T08:26:46;2.60;;;2.20;;
35488;SDS011;21602;55.670;37.578;2022-07-24T08:29:13;3.67;;;2.25;;
35488;SDS011;21602;55.670;37.578;2022-07-24T08:31:39;3.42;;;2.17;;
35488;SDS011;21602;55.670;37.578;2022-07-24T08:34:05;3.30;;;2.13;;
35488;SDS011;21602;55.670;37.578;2022-07-24T08:36:31;5.00;;;2.30;;
35488;SDS011;21602;55.670;37.578;2022-07-24T08:38:56;3.47;;;2.10;;
35488;SDS011;21602;55.670;37.578;2022-07-24T08:41:22;4.38;;;2.20;;
35488;SDS011;21602;55.670;37.578;2022-07-24T08:43:48;2.53;;;2.20;;
35488;SDS011;21602;55.670;37.578;2022-07-24T08:46:15;2.40;;;2.20;;
35488;SDS011;21602;55.670;37.578;2022-07-24T08:48:44;4.90;;;2.67;;
35488;SDS011;21602;55.670;37.578;2022-07-24T08:51:14;2.40;;;1.98;;
35488;SDS011;21602;55.670;37.578;2022-07-24T08:53:40;2.30;;;2.10;;
35488;SDS011;21602;55.670;37.578;2022-07-24T08:56:07;2.45;;;2.15;;
35488;SDS011;21602;55.670;37.578;2022-07-24T08:58:36;4.03;;;2.25;;
35488;SDS011;21602;55.670;37.578;2022-07-24T09:01:03;2.05;;;1.90;;
35488;SDS011;21602;55.670;37.578;2022-07-24T09:03:40;2.40;;;2.20;;
35488;SDS011;21602;55.670;37.578;2022-07-24T09:06:10;3.15;;;2.00;;
35488;SDS011;21602;55.670;37.578;2022-07-24T09:08:56;2.40;;;2.20;;
35488;SDS011;21602;55.670;37.578;2022-07-24T09:11:32;4.85;;;2.80;;
35488;SDS011;21602;55.670;37.578;2022-07-24T09:14:01;7.82;;;2.20;;
35488;SDS011;21602;55.670;37.578;2022-07-24T09:16:46;2.97;;;1.58;;
35488;SDS011;21602;55.670;37.578;2022-07-24T09:19:12;2.47;;;1.90;;
35488;SDS011;21602;55.670;37.578;2022-07-24T09:21:39;5.82;;;2.58;;
35488;SDS011;21602;55.670;37.578;2022-07-24T09:24:19;2.83;;;2.42;;
35488;SDS011;21602;55.670;37.578;2022-07-24T09:26:50;5.78;;;1.98;;
35488;SDS011;21602;55.670;37.578;2022-07-24T09:29:21;3.88;;;1.92;;
35488;SDS011;21602;55.670;37.578;2022-07-24T09:31:52;3.25;;;2.30;;
35488;SDS011;21602;55.670;37.578;2022-07-24T09:34:26;8.85;;;2.47;;
35488;SDS011;21602;55.670;37.578;2022-07-24T09:36:57;3.30;;;2.30;;
35488;SDS011;21602;55.670;37.578;2022-07-24T09:39:25;3.90;;;2.83;;
35488;SDS011;21602;55.670;37.578;2022-07-24T09:41:52;2.20;;;2.00;;
35488;SDS011;21602;55.670;37.578;2022-07-24T09:44:19;2.40;;;2.15;;
35488;SDS011;21602;55.670;37.578;2022-07-24T09:46:48;2.38;;;2.08;;
35488;SDS011;21602;55.670;37.578;2022-07-24T09:49:21;3.25;;;2.00;;
35488;SDS011;21602;55.670;37.578;2022-07-24T09:52:09;3.97;;;2.05;;
35488;SDS011;21602;55.670;37.578;2022-07-24T09:54:39;3.28;;;2.25;;
35488;SDS011;21602;55.670;37.578;2022-07-24T09:59:53;9.27;;;1.95;;
35488;SDS011;21602;55.670;37.578;2022-07-24T10:02:21;4.05;;;2.28;;
35488;SDS011;21602;55.670;37.578;2022-07-24T10:04:49;5.50;;;2.35;;
35488;SDS011;21602;55.670;37.578;2022-07-24T10:07:17;2.38;;;1.75;;
35488;SDS011;21602;55.670;37.578;2022-07-24T10:09:45;2.70;;;2.00;;
35488;SDS011;21602;55.670;37.578;2022-07-24T10:12:15;2.15;;;1.73;;
35488;SDS011;21602;55.670;37.578;2022-07-24T10:14:43;2.33;;;2.10;;
35488;SDS011;21602;55.670;37.578;2022-07-24T10:22:35;2.58;;;2.13;;
35488;SDS011;21602;55.670;37.578;2022-07-24T10:25:05;3.88;;;2.45;;
35488;SDS011;21602;55.670;37.578;2022-07-24T10:27:36;2.55;;;2.35;;
35488;SDS011;21602;55.670;37.578;2022-07-24T10:30:09;4.18;;;2.20;;
35488;SDS011;21602;55.670;37.578;2022-07-24T10:32:36;4.18;;;1.95;;
35488;SDS011;21602;55.670;37.578;2022-07-24T10:40:51;2.35;;;2.15;;
35488;SDS011;21602;55.670;37.578;2022-07-24T10:43:20;2.42;;;1.85;;
35488;SDS011;21602;55.670;37.578;2022-07-24T10:55:52;2.37;;;1.77;;
35488;SDS011;21602;55.670;37.578;2022-07-24T10:58:20;2.00;;;1.90;;
35488;SDS011;21602;55.670;37.578;2022-07-24T11:00:47;3.63;;;2.35;;
35488;SDS011;21602;55.670;37.578;2022-07-24T11:06:04;2.17;;;1.83;;
35488;SDS011;21602;55.670;37.578;2022-07-24T11:08:41;2.10;;;2.00;;
35488;SDS011;21602;55.670;37.578;2022-07-24T11:11:18;7.35;;;1.90;;
35488;SDS011;21602;55.670;37.578;2022-07-24T11:13:46;2.42;;;1.90;;
35488;SDS011;21602;55.670;37.578;2022-07-24T11:16:33;3.22;;;1.98;;
35488;SDS011;21602;55.670;37.578;2022-07-24T11:21:34;2.53;;;1.83;;
35488;SDS011;21602;55.670;37.578;2022-07-24T11:31:50;2.85;;;1.80;;
35488;SDS011;21602;55.670;37.578;2022-07-24T11:34:19;4.07;;;1.70;;
35488;SDS011;21602;55.670;37.578;2022-07-24T11:36:47;2.10;;;1.98;;
35488;SDS011;21602;55.670;37.578;2022-07-24T11:39:16;2.00;;;1.88;;
35488;SDS011;21602;55.670;37.578;2022-07-24T11:44:10;2.70;;;1.88;;
35488;SDS011;21602;55.670;37.578;2022-07-24T11:46:37;3.08;;;1.80;;
35488;SDS011;21602;55.670;37.578;2022-07-24T11:49:05;3.35;;;1.95;;
35488;SDS011;21602;55.670;37.578;2022-07-24T11:51:40;2.72;;;2.33;;
35488;SDS011;21602;55.670;37.578;2022-07-24T11:54:07;5.07;;;2.35;;
35488;SDS011;21602;55.670;37.578;2022-07-24T11:56:34;3.83;;;2.28;;
35488;SDS011;21602;55.670;37.578;2022-07-24T11:59:00;2.00;;;1.90;;
35488;SDS011;21602;55.670;37.578;2022-07-24T12:01:26;2.33;;;2.03;;
35488;SDS011;21602;55.670;37.578;2022-07-24T12:03:52;2.45;;;2.00;;
35488;SDS011;21602;55.670;37.578;2022-07-24T12:06:19;2.28;;;1.90;;
35488;SDS011;21602;55.670;37.578;2022-07-24T12:08:45;3.30;;;2.20;;
35488;SDS011;21602;55.670;37.578;2022-07-24T12:11:11;2.00;;;1.80;;
35488;SDS011;21602;55.670;37.578;2022-07-24T12:13:46;2.25;;;2.13;;
35488;SDS011;21602;55.670;37.578;2022-07-24T12:16:22;4.20;;;2.10;;
35488;SDS011;21602;55.670;37.578;2022-07-24T12:19:16;2.70;;;2.10;;
35488;SDS011;21602;55.670;37.578;2022-07-24T12:21:44;2.97;;;2.08;;
35488;SDS011;21602;55.670;37.578;2022-07-24T12:24:11;5.72;;;2.53;;
35488;SDS011;21602;55.670;37.578;2022-07-24T12:26:54;2.42;;;2.13;;
35488;SDS011;21602;55.670;37.578;2022-07-24T12:29:27;2.28;;;2.08;;
35488;SDS011;21602;55.670;37.578;2022-07-24T12:31:54;5.18;;;2.53;;
35488;SDS011;21602;55.670;37.578;2022-07-24T12:34:45;2.05;;;1.95;;
35488;SDS011;21602;55.670;37.578;2022-07-24T12:40:07;5.63;;;2.33;;
35488;SDS011;21602;55.670;37.578;2022-07-24T12:42:33;2.15;;;1.95;;
35488;SDS011;21602;55.670;37.578;2022-07-24T12:45:09;2.78;;;2.00;;
35488;SDS011;21602;55.670;37.578;2022-07-24T12:48:04;4.15;;;2.03;;
35488;SDS011;21602;55.670;37.578;2022-07-24T12:50:32;3.10;;;2.17;;
35488;SDS011;21602;55.670;37.578;2022-07-24T12:53:04;4.90;;;2.92;;
35488;SDS011;21602;55.670;37.578;2022-07-24T12:55:31;3.00;;;2.10;;
35488;SDS011;21602;55.670;37.578;2022-07-24T12:58:02;4.70;;;2.00;;
35488;SDS011;21602;55.670;37.578;2022-07-24T13:00:30;2.85;;;2.00;;
35488;SDS011;21602;55.670;37.578;2022-07-24T13:02:59;3.15;;;2.20;;
35488;SDS011;21602;55.670;37.578;2022-07-24T13:05:40;2.80;;;2.22;;
35488;SDS011;21602;55.670;37.578;2022-07-24T13:08:22;5.22;;;2.15;;
35488;SDS011;21602;55.670;37.578;2022-07-24T13:10:48;3.75;;;2.35;;
35488;SDS011;21602;55.670;37.578;2022-07-24T13:13:14;2.50;;;2.30;;
35488;SDS011;21602;55.670;37.578;2022-07-24T13:15:40;2.47;;;2.10;;
35488;SDS011;21602;55.670;37.578;2022-07-24T13:18:06;2.55;;;2.20;;
35488;SDS011;21602;55.670;37.578;2022-07-24T13:20:33;2.67;;;2.13;;
35488;SDS011;21602;55.670;37.578;2022-07-24T13:22:59;2.35;;;2.10;;
35488;SDS011;21602;55.670;37.578;2022-07-24T13:25:25;4.57;;;2.47;;
35488;SDS011;21602;55.670;37.578;2022-07-24T13:27:51;3.78;;;2.00;;
35488;SDS011;21602;55.670;37.578;2022-07-24T13:30:17;5.13;;;2.10;;
35488;SDS011;21602;55.670;37.578;2022-07-24T13:32:42;6.43;;;3.28;;
35488;SDS011;21602;55.670;37.578;2022-07-24T13:35:08;5.88;;;2.35;;
35488;SDS011;21602;55.670;37.578;2022-07-24T13:37:35;3.22;;;1.95;;
35488;SDS011;21602;55.670;37.578;2022-07-24T13:40:01;2.53;;;2.33;;
35488;SDS011;21602;55.670;37.578;2022-07-24T13:45:30;2.47;;;2.15;;
35488;SDS011;21602;55.670;37.578;2022-07-24T13:47:56;2.40;;;2.20;;
35488;SDS011;21602;55.670;37.578;2022-07-24T13:50:22;2.30;;;2.10;;
35488;SDS011;21602;55.670;37.578;2022-07-24T13:52:47;3.47;;;3.13;;
35488;SDS011;21602;55.670;37.578;2022-07-24T13:55:13;2.55;;;2.35;;
35488;SDS011;21602;55.670;37.578;2022-07-24T13:57:39;4.35;;;2.45;;
35488;SDS011;21602;55.670;37.578;2022-07-24T14:00:05;4.38;;;2.38;;
35488;SDS011;21602;55.670;37.578;2022-07-24T14:02:32;2.55;;;2.20;;
35488;SDS011;21602;55.670;37.578;2022-07-24T14:04:58;2.40;;;2.20;;
35488;SDS011;21602;55.670;37.578;2022-07-24T14:07:24;4.05;;;3.03;;
35488;SDS011;21602;55.670;37.578;2022-07-24T14:09:50;2.17;;;1.95;;
35488;SDS011;21602;55.670;37.578;2022-07-24T14:12:16;2.10;;;1.90;;
35488;SDS011;21602;55.670;37.578;2022-07-24T14:14:42;2.05;;;1.88;;
35488;SDS011;21602;55.670;37.578;2022-07-24T14:17:08;3.75;;;2.15;;
35488;SDS011;21602;55.670;37.578;2022-07-24T14:19:34;6.15;;;2.38;;
35488;SDS011;21602;55.670;37.578;2022-07-24T14:22:00;3.88;;;2.08;;
35488;SDS011;21602;55.670;37.578;2022-07-24T14:24:26;5.15;;;1.90;;
35488;SDS011;21602;55.670;37.578;2022-07-24T14:26:52;3.50;;;2.08;;
35488;SDS011;21602;55.670;37.578;2022-07-24T14:29:18;3.05;;;2.17;;
35488;SDS011;21602;55.670;37.578;2022-07-24T14:31:44;3.10;;;2.05;;
35488;SDS011;21602;55.670;37.578;2022-07-24T14:34:10;2.42;;;2.22;;
35488;SDS011;21602;55.670;37.578;2022-07-24T14:36:36;3.40;;;2.22;;
35488;SDS011;21602;55.670;37.578;2022-07-24T14:39:02;2.97;;;2.35;;
35488;SDS011;21602;55.670;37.578;2022-07-24T14:41:28;2.33;;;2.00;;
35488;SDS011;21602;55.670;37.578;2022-07-24T14:43:54;5.47;;;2.05;;
35488;SDS011;21602;55.670;37.578;2022-07-24T14:46:19;3.92;;;2.10;;
35488;SDS011;21602;55.670;37.578;2022-07-24T14:48:45;8.68;;;2.58;;
35488;SDS011;21602;55.670;37.578;2022-07-24T14:51:11;6.68;;;3.38;;
35488;SDS011;21602;55.670;37.578;2022-07-24T14:53:37;2.38;;;1.80;;
35488;SDS011;21602;55.670;37.578;2022-07-24T14:56:03;3.05;;;2.53;;
35488;SDS011;21602;55.670;37.578;2022-07-24T14:58:29;4.82;;;2.20;;
35488;SDS011;21602;55.670;37.578;2022-07-24T15:00:55;4.78;;;1.90;;
35488;SDS011;21602;55.670;37.578;2022-07-24T15:03:21;2.17;;;1.90;;
35488;SDS011;21602;55.670;37.578;2022-07-24T15:05:47;2.60;;;2.13;;
35488;SDS011;21602;55.670;37.578;2022-07-24T15:08:13;3.03;;;2.05;;
35488;SDS011;21602;55.670;37.578;2022-07-24T15:10:38;2.70;;;2.20;;
35488;SDS011;21602;55.670;37.578;2022-07-24T15:13:04;3.08;;;2.22;;
35488;SDS011;21602;55.670;37.578;2022-07-24T15:15:30;3.90;;;2.08;;
35488;SDS011;21602;55.670;37.578;2022-07-24T15:17:57;4.70;;;2.92;;
35488;SDS011;21602;55.670;37.578;2022-07-24T15:20:23;6.03;;;4.70;;
35488;SDS011;21602;55.670;37.578;2022-07-24T15:22:49;4.78;;;3.90;;
35488;SDS011;21602;55.670;37.578;2022-07-24T15:25:17;3.22;;;2.33;;